sensor_id;sensor_type;location;lat;lon;timestamp;temperature;humidity
63976;DHT22;50167;47.958;21.780;2022-07-19T00:02:10;15.12;56.78
63976;DHT22;50167;47.958;21.780;2022-07-19T00:04:36;15.13;58.17
63976;DHT22;50167;47.958;21.780;2022-07-19T00:07:03;15.10;56.79
63976;DHT22;50167;47.958;21.780;2022-07-19T00:09:30;15.10;58.18
63976;DHT22;50167;47.958;21.780;2022-07-19T00:11:56;15.06;57.74
63976;DHT22;50167;47.958;21.780;2022-07-19T00:14:22;15.05;58.52
63976;DHT22;50167;47.958;21.780;2022-07-19T00:16:51;15.05;57.71
63976;DHT22;50167;47.958;21.780;2022-07-19T00:19:17;15.03;57.34
63976;DHT22;50167;47.958;21.780;2022-07-19T00:21:46;15.02;57.41
63976;DHT22;50167;47.958;21.780;2022-07-19T00:24:12;15.02;57.17
63976;DHT22;50167;47.958;21.780;2022-07-19T00:26:40;15.00;57.45
63976;DHT22;50167;47.958;21.780;2022-07-19T00:29:06;15.02;57.45
63976;DHT22;50167;47.958;21.780;2022-07-19T00:31:32;15.00;57.41
63976;DHT22;50167;47.958;21.780;2022-07-19T00:33:58;14.98;58.13
63976;DHT22;50167;47.958;21.780;2022-07-19T00:36:24;14.92;57.93
63976;DHT22;50167;47.958;21.780;2022-07-19T00:38:50;14.91;57.94
63976;DHT22;50167;47.958;21.780;2022-07-19T00:41:16;14.86;58.59
63976;DHT22;50167;47.958;21.780;2022-07-19T00:43:43;14.84;58.04
63976;DHT22;50167;47.958;21.780;2022-07-19T00:46:16;14.81;58.06
63976;DHT22;50167;47.958;21.780;2022-07-19T00:48:43;14.78;58.05
63976;DHT22;50167;47.958;21.780;2022-07-19T00:51:12;14.75;58.21
63976;DHT22;50167;47.958;21.780;2022-07-19T00:53:41;14.71;58.07
63976;DHT22;50167;47.958;21.780;2022-07-19T00:56:09;14.68;58.14
63976;DHT22;50167;47.958;21.780;2022-07-19T00:58:36;14.67;58.47
63976;DHT22;50167;47.958;21.780;2022-07-19T01:01:06;14.63;59.11
63976;DHT22;50167;47.958;21.780;2022-07-19T01:03:38;14.60;59.24
63976;DHT22;50167;47.958;21.780;2022-07-19T01:06:05;14.58;59.62
63976;DHT22;50167;47.958;21.780;2022-07-19T01:08:31;14.58;59.04
63976;DHT22;50167;47.958;21.780;2022-07-19T01:10:57;14.58;59.08
63976;DHT22;50167;47.958;21.780;2022-07-19T01:13:23;14.56;58.85
63976;DHT22;50167;47.958;21.780;2022-07-19T01:15:50;14.56;58.99
63976;DHT22;50167;47.958;21.780;2022-07-19T01:18:19;14.51;58.90
63976;DHT22;50167;47.958;21.780;2022-07-19T01:20:45;14.50;59.03
63976;DHT22;50167;47.958;21.780;2022-07-19T01:23:11;14.45;59.35
63976;DHT22;50167;47.958;21.780;2022-07-19T01:25:37;14.47;59.38
63976;DHT22;50167;47.958;21.780;2022-07-19T01:28:08;14.44;59.44
63976;DHT22;50167;47.958;21.780;2022-07-19T01:30:34;14.43;59.67
63976;DHT22;50167;47.958;21.780;2022-07-19T01:33:02;14.44;59.66
63976;DHT22;50167;47.958;21.780;2022-07-19T01:35:28;14.44;60.54
63976;DHT22;50167;47.958;21.780;2022-07-19T01:37:55;14.41;59.91
63976;DHT22;50167;47.958;21.780;2022-07-19T01:40:21;14.41;59.99
63976;DHT22;50167;47.958;21.780;2022-07-19T01:42:47;14.40;59.87
63976;DHT22;50167;47.958;21.780;2022-07-19T01:45:14;14.38;60.05
63976;DHT22;50167;47.958;21.780;2022-07-19T01:47:40;14.34;60.70
63976;DHT22;50167;47.958;21.780;2022-07-19T01:50:09;14.33;61.06
63976;DHT22;50167;47.958;21.780;2022-07-19T01:52:35;14.29;61.03
63976;DHT22;50167;47.958;21.780;2022-07-19T01:55:02;14.26;61.36
63976;DHT22;50167;47.958;21.780;2022-07-19T01:57:28;14.23;61.07
63976;DHT22;50167;47.958;21.780;2022-07-19T01:59:55;14.19;60.99
63976;DHT22;50167;47.958;21.780;2022-07-19T02:02:21;14.16;61.18
63976;DHT22;50167;47.958;21.780;2022-07-19T02:04:47;14.15;61.82
63976;DHT22;50167;47.958;21.780;2022-07-19T02:07:13;14.08;61.95
63976;DHT22;50167;47.958;21.780;2022-07-19T02:09:39;14.17;64.29
63976;DHT22;50167;47.958;21.780;2022-07-19T02:12:05;15.71;75.72
63976;DHT22;50167;47.958;21.780;2022-07-19T02:14:31;17.12;78.06
63976;DHT22;50167;47.958;21.780;2022-07-19T02:16:57;18.02;75.62
63976;DHT22;50167;47.958;21.780;2022-07-19T02:19:25;18.63;69.78
63976;DHT22;50167;47.958;21.780;2022-07-19T02:21:50;19.02;67.86
63976;DHT22;50167;47.958;21.780;2022-07-19T02:24:16;19.35;65.65
63976;DHT22;50167;47.958;21.780;2022-07-19T02:26:42;19.66;63.12
63976;DHT22;50167;47.958;21.780;2022-07-19T02:29:08;19.88;60.34
63976;DHT22;50167;47.958;21.780;2022-07-19T02:31:35;20.05;60.26
63976;DHT22;50167;47.958;21.780;2022-07-19T02:34:01;20.10;56.49
63976;DHT22;50167;47.958;21.780;2022-07-19T02:36:27;19.14;52.29
63976;DHT22;50167;47.958;21.780;2022-07-19T02:38:53;18.14;50.87
63976;DHT22;50167;47.958;21.780;2022-07-19T02:41:19;17.36;50.02
63976;DHT22;50167;47.958;21.780;2022-07-19T02:43:45;16.74;50.60
63976;DHT22;50167;47.958;21.780;2022-07-19T02:46:11;16.23;51.36
63976;DHT22;50167;47.958;21.780;2022-07-19T02:48:37;15.77;52.77
63976;DHT22;50167;47.958;21.780;2022-07-19T02:51:03;15.42;53.08
63976;DHT22;50167;47.958;21.780;2022-07-19T02:53:29;15.09;55.32
63976;DHT22;50167;47.958;21.780;2022-07-19T02:55:55;14.81;55.79
63976;DHT22;50167;47.958;21.780;2022-07-19T02:58:21;14.58;56.49
63976;DHT22;50167;47.958;21.780;2022-07-19T03:00:47;14.36;57.71
63976;DHT22;50167;47.958;21.780;2022-07-19T03:03:13;14.20;58.49
63976;DHT22;50167;47.958;21.780;2022-07-19T03:05:57;14.03;58.85
63976;DHT22;50167;47.958;21.780;2022-07-19T03:08:23;13.91;58.95
63976;DHT22;50167;47.958;21.780;2022-07-19T03:10:49;13.78;59.11
63976;DHT22;50167;47.958;21.780;2022-07-19T03:13:15;13.70;59.06
63976;DHT22;50167;47.958;21.780;2022-07-19T03:15:41;13.61;60.47
63976;DHT22;50167;47.958;21.780;2022-07-19T03:18:07;13.55;59.87
63976;DHT22;50167;47.958;21.780;2022-07-19T03:20:33;13.48;59.12
63976;DHT22;50167;47.958;21.780;2022-07-19T03:22:59;13.43;59.82
63976;DHT22;50167;47.958;21.780;2022-07-19T03:25:25;13.41;60.08
63976;DHT22;50167;47.958;21.780;2022-07-19T03:27:51;13.40;59.96
63976;DHT22;50167;47.958;21.780;2022-07-19T03:30:17;13.37;60.32
63976;DHT22;50167;47.958;21.780;2022-07-19T03:32:43;13.35;61.01
63976;DHT22;50167;47.958;21.780;2022-07-19T03:35:08;13.37;61.04
63976;DHT22;50167;47.958;21.780;2022-07-19T03:37:34;13.54;64.48
63976;DHT22;50167;47.958;21.780;2022-07-19T03:40:00;15.19;74.58
63976;DHT22;50167;47.958;21.780;2022-07-19T03:42:26;16.60;75.60
63976;DHT22;50167;47.958;21.780;2022-07-19T03:44:52;17.53;70.66
63976;DHT22;50167;47.958;21.780;2022-07-19T03:47:18;18.25;65.91
63976;DHT22;50167;47.958;21.780;2022-07-19T03:49:44;18.73;63.58
63976;DHT22;50167;47.958;21.780;2022-07-19T03:52:10;19.18;61.45
63976;DHT22;50167;47.958;21.780;2022-07-19T03:54:36;19.63;58.78
63976;DHT22;50167;47.958;21.780;2022-07-19T03:57:03;19.31;53.28
63976;DHT22;50167;47.958;21.780;2022-07-19T03:59:29;18.48;52.41
63976;DHT22;50167;47.958;21.780;2022-07-19T04:01:55;17.84;52.23
63976;DHT22;50167;47.958;21.780;2022-07-19T04:04:20;17.36;51.76
63976;DHT22;50167;47.958;21.780;2022-07-19T04:06:46;16.97;51.80
63976;DHT22;50167;47.958;21.780;2022-07-19T04:09:12;16.64;51.24
63976;DHT22;50167;47.958;21.780;2022-07-19T04:11:38;16.41;52.18
63976;DHT22;50167;47.958;21.780;2022-07-19T04:14:04;16.22;52.08
63976;DHT22;50167;47.958;21.780;2022-07-19T04:16:30;16.09;52.64
63976;DHT22;50167;47.958;21.780;2022-07-19T04:18:56;15.96;52.65
63976;DHT22;50167;47.958;21.780;2022-07-19T04:21:22;15.88;53.32
63976;DHT22;50167;47.958;21.780;2022-07-19T04:23:48;15.81;53.33
63976;DHT22;50167;47.958;21.780;2022-07-19T04:26:14;15.75;53.83
63976;DHT22;50167;47.958;21.780;2022-07-19T04:28:40;15.75;54.09
63976;DHT22;50167;47.958;21.780;2022-07-19T04:31:06;15.77;54.56
63976;DHT22;50167;47.958;21.780;2022-07-19T04:33:31;15.81;54.72
63976;DHT22;50167;47.958;21.780;2022-07-19T04:35:57;15.86;55.09
63976;DHT22;50167;47.958;21.780;2022-07-19T04:38:23;15.91;55.46
63976;DHT22;50167;47.958;21.780;2022-07-19T04:40:49;15.99;55.66
63976;DHT22;50167;47.958;21.780;2022-07-19T04:43:18;16.08;55.80
63976;DHT22;50167;47.958;21.780;2022-07-19T04:45:43;16.19;56.04
63976;DHT22;50167;47.958;21.780;2022-07-19T04:48:11;16.32;56.45
63976;DHT22;50167;47.958;21.780;2022-07-19T04:50:37;16.44;56.44
63976;DHT22;50167;47.958;21.780;2022-07-19T04:53:04;16.56;56.52
63976;DHT22;50167;47.958;21.780;2022-07-19T04:55:30;16.71;56.70
63976;DHT22;50167;47.958;21.780;2022-07-19T04:57:56;16.83;56.75
63976;DHT22;50167;47.958;21.780;2022-07-19T05:00:22;16.95;57.45
63976;DHT22;50167;47.958;21.780;2022-07-19T05:02:48;17.11;56.91
63976;DHT22;50167;47.958;21.780;2022-07-19T05:05:13;17.26;56.85
63976;DHT22;50167;47.958;21.780;2022-07-19T05:07:40;17.40;57.36
63976;DHT22;50167;47.958;21.780;2022-07-19T05:10:07;17.56;57.17
63976;DHT22;50167;47.958;21.780;2022-07-19T05:12:33;17.70;57.00
63976;DHT22;50167;47.958;21.780;2022-07-19T05:14:59;17.85;57.68
63976;DHT22;50167;47.958;21.780;2022-07-19T05:17:25;17.98;57.01
63976;DHT22;50167;47.958;21.780;2022-07-19T05:19:51;18.16;56.78
63976;DHT22;50167;47.958;21.780;2022-07-19T05:22:17;18.32;56.65
63976;DHT22;50167;47.958;21.780;2022-07-19T05:24:43;18.49;56.51
63976;DHT22;50167;47.958;21.780;2022-07-19T05:27:09;18.66;56.40
63976;DHT22;50167;47.958;21.780;2022-07-19T05:29:35;18.81;56.20
63976;DHT22;50167;47.958;21.780;2022-07-19T05:32:01;19.00;56.36
63976;DHT22;50167;47.958;21.780;2022-07-19T05:34:28;19.17;56.25
63976;DHT22;50167;47.958;21.780;2022-07-19T05:36:53;19.35;56.14
63976;DHT22;50167;47.958;21.780;2022-07-19T05:39:19;19.53;57.06
63976;DHT22;50167;47.958;21.780;2022-07-19T05:41:45;19.72;56.25
63976;DHT22;50167;47.958;21.780;2022-07-19T05:44:11;19.90;55.63
63976;DHT22;50167;47.958;21.780;2022-07-19T05:46:37;20.08;55.33
63976;DHT22;50167;47.958;21.780;2022-07-19T05:49:05;20.25;56.09
63976;DHT22;50167;47.958;21.780;2022-07-19T05:51:31;20.36;56.20
63976;DHT22;50167;47.958;21.780;2022-07-19T05:53:56;20.51;55.34
63976;DHT22;50167;47.958;21.780;2022-07-19T05:56:23;20.68;55.07
63976;DHT22;50167;47.958;21.780;2022-07-19T05:58:48;20.82;55.13
63976;DHT22;50167;47.958;21.780;2022-07-19T06:01:14;20.96;55.03
63976;DHT22;50167;47.958;21.780;2022-07-19T06:03:44;21.14;54.48
63976;DHT22;50167;47.958;21.780;2022-07-19T06:06:10;21.33;53.98
63976;DHT22;50167;47.958;21.780;2022-07-19T06:08:36;21.54;53.50
63976;DHT22;50167;47.958;21.780;2022-07-19T06:11:02;21.73;53.38
63976;DHT22;50167;47.958;21.780;2022-07-19T06:13:28;21.91;53.25
63976;DHT22;50167;47.958;21.780;2022-07-19T06:15:55;22.10;53.25
63976;DHT22;50167;47.958;21.780;2022-07-19T06:18:20;22.25;53.35
63976;DHT22;50167;47.958;21.780;2022-07-19T06:20:47;22.35;52.75
63976;DHT22;50167;47.958;21.780;2022-07-19T06:23:12;22.45;52.55
63976;DHT22;50167;47.958;21.780;2022-07-19T06:25:38;22.55;52.21
63976;DHT22;50167;47.958;21.780;2022-07-19T06:28:04;22.70;52.06
63976;DHT22;50167;47.958;21.780;2022-07-19T06:30:30;22.83;51.52
63976;DHT22;50167;47.958;21.780;2022-07-19T06:32:56;23.02;51.27
63976;DHT22;50167;47.958;21.780;2022-07-19T06:35:22;23.20;50.95
63976;DHT22;50167;47.958;21.780;2022-07-19T06:37:48;23.39;50.17
63976;DHT22;50167;47.958;21.780;2022-07-19T06:40:14;23.58;50.54
63976;DHT22;50167;47.958;21.780;2022-07-19T06:42:40;23.69;49.41
63976;DHT22;50167;47.958;21.780;2022-07-19T06:45:06;23.83;47.63
63976;DHT22;50167;47.958;21.780;2022-07-19T06:47:32;23.94;47.89
63976;DHT22;50167;47.958;21.780;2022-07-19T06:49:58;24.08;47.63
63976;DHT22;50167;47.958;21.780;2022-07-19T06:52:24;24.23;46.81
63976;DHT22;50167;47.958;21.780;2022-07-19T06:54:50;24.39;46.67
63976;DHT22;50167;47.958;21.780;2022-07-19T06:57:22;24.53;46.70
63976;DHT22;50167;47.958;21.780;2022-07-19T06:59:48;24.68;46.84
63976;DHT22;50167;47.958;21.780;2022-07-19T07:02:14;24.81;45.12
63976;DHT22;50167;47.958;21.780;2022-07-19T07:04:40;24.95;44.84
63976;DHT22;50167;47.958;21.780;2022-07-19T07:07:06;25.08;44.82
63976;DHT22;50167;47.958;21.780;2022-07-19T07:09:32;25.19;45.13
63976;DHT22;50167;47.958;21.780;2022-07-19T07:11:59;25.35;45.07
63976;DHT22;50167;47.958;21.780;2022-07-19T07:14:26;25.46;45.72
63976;DHT22;50167;47.958;21.780;2022-07-19T07:16:52;25.56;46.06
63976;DHT22;50167;47.958;21.780;2022-07-19T07:19:18;25.67;44.90
63976;DHT22;50167;47.958;21.780;2022-07-19T07:21:46;25.80;44.27
63976;DHT22;50167;47.958;21.780;2022-07-19T07:24:12;26.01;43.75
63976;DHT22;50167;47.958;21.780;2022-07-19T07:26:39;26.18;45.03
63976;DHT22;50167;47.958;21.780;2022-07-19T07:29:05;26.32;44.62
63976;DHT22;50167;47.958;21.780;2022-07-19T07:31:31;26.46;44.52
63976;DHT22;50167;47.958;21.780;2022-07-19T07:33:58;26.56;44.38
63976;DHT22;50167;47.958;21.780;2022-07-19T07:36:24;26.69;43.94
63976;DHT22;50167;47.958;21.780;2022-07-19T07:38:50;26.80;43.18
63976;DHT22;50167;47.958;21.780;2022-07-19T07:41:15;26.83;41.73
63976;DHT22;50167;47.958;21.780;2022-07-19T07:43:41;26.91;41.35
63976;DHT22;50167;47.958;21.780;2022-07-19T07:46:07;26.97;40.31
63976;DHT22;50167;47.958;21.780;2022-07-19T07:48:33;27.01;38.86
63976;DHT22;50167;47.958;21.780;2022-07-19T07:50:59;27.07;39.44
63976;DHT22;50167;47.958;21.780;2022-07-19T07:53:25;27.20;39.04
63976;DHT22;50167;47.958;21.780;2022-07-19T07:55:51;27.24;38.65
63976;DHT22;50167;47.958;21.780;2022-07-19T07:58:23;27.34;38.53
63976;DHT22;50167;47.958;21.780;2022-07-19T08:00:49;27.45;37.59
63976;DHT22;50167;47.958;21.780;2022-07-19T08:03:18;27.55;37.30
63976;DHT22;50167;47.958;21.780;2022-07-19T08:05:44;27.69;36.87
63976;DHT22;50167;47.958;21.780;2022-07-19T08:08:14;27.83;38.34
63976;DHT22;50167;47.958;21.780;2022-07-19T08:10:40;27.93;38.08
63976;DHT22;50167;47.958;21.780;2022-07-19T08:13:06;28.04;37.07
63976;DHT22;50167;47.958;21.780;2022-07-19T08:15:38;28.19;35.70
63976;DHT22;50167;47.958;21.780;2022-07-19T08:18:05;28.23;34.74
63976;DHT22;50167;47.958;21.780;2022-07-19T08:20:31;28.28;35.19
63976;DHT22;50167;47.958;21.780;2022-07-19T08:22:57;28.35;35.82
63976;DHT22;50167;47.958;21.780;2022-07-19T08:25:30;28.43;34.86
63976;DHT22;50167;47.958;21.780;2022-07-19T08:27:58;28.55;34.24
63976;DHT22;50167;47.958;21.780;2022-07-19T08:30:30;28.60;34.90
63976;DHT22;50167;47.958;21.780;2022-07-19T08:32:56;28.74;34.89
63976;DHT22;50167;47.958;21.780;2022-07-19T08:35:22;28.86;34.43
63976;DHT22;50167;47.958;21.780;2022-07-19T08:37:49;28.96;34.16
63976;DHT22;50167;47.958;21.780;2022-07-19T08:40:16;29.05;33.88
63976;DHT22;50167;47.958;21.780;2022-07-19T08:42:42;29.13;34.59
63976;DHT22;50167;47.958;21.780;2022-07-19T08:45:09;29.09;34.67
63976;DHT22;50167;47.958;21.780;2022-07-19T08:47:38;29.09;34.62
63976;DHT22;50167;47.958;21.780;2022-07-19T08:50:06;29.13;33.49
63976;DHT22;50167;47.958;21.780;2022-07-19T08:52:36;29.17;33.56
63976;DHT22;50167;47.958;21.780;2022-07-19T08:55:03;29.19;33.82
63976;DHT22;50167;47.958;21.780;2022-07-19T08:57:31;29.26;33.29
63976;DHT22;50167;47.958;21.780;2022-07-19T09:00:16;29.37;33.30
63976;DHT22;50167;47.958;21.780;2022-07-19T09:03:06;29.41;33.14
63976;DHT22;50167;47.958;21.780;2022-07-19T09:05:30;29.48;31.92
63976;DHT22;50167;47.958;21.780;2022-07-19T09:08:14;29.53;32.70
63976;DHT22;50167;47.958;21.780;2022-07-19T09:10:56;29.63;32.36
63976;DHT22;50167;47.958;21.780;2022-07-19T09:13:41;29.71;31.09
63976;DHT22;50167;47.958;21.780;2022-07-19T09:16:08;29.77;31.82
63976;DHT22;50167;47.958;21.780;2022-07-19T09:18:34;29.89;30.59
63976;DHT22;50167;47.958;21.780;2022-07-19T09:21:04;30.01;32.30
63976;DHT22;50167;47.958;21.780;2022-07-19T09:23:31;30.08;31.86
63976;DHT22;50167;47.958;21.780;2022-07-19T09:26:02;30.22;32.01
63976;DHT22;50167;47.958;21.780;2022-07-19T09:28:29;30.29;31.82
63976;DHT22;50167;47.958;21.780;2022-07-19T09:30:57;30.33;31.43
63976;DHT22;50167;47.958;21.780;2022-07-19T09:33:26;30.42;31.43
63976;DHT22;50167;47.958;21.780;2022-07-19T09:36:11;30.49;31.47
63976;DHT22;50167;47.958;21.780;2022-07-19T09:38:33;30.60;31.45
63976;DHT22;50167;47.958;21.780;2022-07-19T09:41:19;30.73;31.34
63976;DHT22;50167;47.958;21.780;2022-07-19T09:43:58;30.92;31.50
63976;DHT22;50167;47.958;21.780;2022-07-19T09:46:36;31.09;30.86
63976;DHT22;50167;47.958;21.780;2022-07-19T09:49:14;31.26;31.18
63976;DHT22;50167;47.958;21.780;2022-07-19T09:51:40;31.39;28.07
63976;DHT22;50167;47.958;21.780;2022-07-19T09:54:07;31.49;29.57
63976;DHT22;50167;47.958;21.780;2022-07-19T09:56:42;31.52;30.12
63976;DHT22;50167;47.958;21.780;2022-07-19T09:59:03;31.53;29.91
63976;DHT22;50167;47.958;21.780;2022-07-19T10:01:31;31.50;29.60
63976;DHT22;50167;47.958;21.780;2022-07-19T10:04:01;31.56;29.57
63976;DHT22;50167;47.958;21.780;2022-07-19T10:06:28;31.59;29.73
63976;DHT22;50167;47.958;21.780;2022-07-19T10:08:57;31.65;27.44
63976;DHT22;50167;47.958;21.780;2022-07-19T10:11:23;31.60;28.64
63976;DHT22;50167;47.958;21.780;2022-07-19T10:13:50;31.59;27.54
63976;DHT22;50167;47.958;21.780;2022-07-19T10:16:22;31.59;28.10
63976;DHT22;50167;47.958;21.780;2022-07-19T10:19:08;31.57;28.04
63976;DHT22;50167;47.958;21.780;2022-07-19T10:21:30;31.50;27.76
63976;DHT22;50167;47.958;21.780;2022-07-19T10:23:57;31.49;26.94
63976;DHT22;50167;47.958;21.780;2022-07-19T10:26:42;31.50;27.17
63976;DHT22;50167;47.958;21.780;2022-07-19T10:29:17;31.57;27.75
63976;DHT22;50167;47.958;21.780;2022-07-19T10:32:03;31.73;28.00
63976;DHT22;50167;47.958;21.780;2022-07-19T10:34:21;31.86;28.33
63976;DHT22;50167;47.958;21.780;2022-07-19T10:36:49;31.95;28.15
63976;DHT22;50167;47.958;21.780;2022-07-19T10:39:20;32.04;27.83
63976;DHT22;50167;47.958;21.780;2022-07-19T10:42:15;32.03;27.62
63976;DHT22;50167;47.958;21.780;2022-07-19T10:50:07;32.11;26.68
63976;DHT22;50167;47.958;21.780;2022-07-19T10:52:41;32.13;26.28
63976;DHT22;50167;47.958;21.780;2022-07-19T10:55:26;32.15;26.81
63976;DHT22;50167;47.958;21.780;2022-07-19T10:58:09;32.24;26.52
63976;DHT22;50167;47.958;21.780;2022-07-19T11:00:47;32.25;26.74
63976;DHT22;50167;47.958;21.780;2022-07-19T11:06:01;32.34;26.73
63976;DHT22;50167;47.958;21.780;2022-07-19T11:08:37;32.43;27.01
63976;DHT22;50167;47.958;21.780;2022-07-19T11:11:07;32.52;27.10
63976;DHT22;50167;47.958;21.780;2022-07-19T11:13:34;32.58;26.89
63976;DHT22;50167;47.958;21.780;2022-07-19T11:16:01;32.65;26.42
63976;DHT22;50167;47.958;21.780;2022-07-19T11:18:29;32.75;26.01
63976;DHT22;50167;47.958;21.780;2022-07-19T11:20:57;32.82;25.43
63976;DHT22;50167;47.958;21.780;2022-07-19T11:23:24;32.80;26.47
63976;DHT22;50167;47.958;21.780;2022-07-19T11:25:52;32.80;26.77
63976;DHT22;50167;47.958;21.780;2022-07-19T11:28:22;32.83;26.83
63976;DHT22;50167;47.958;21.780;2022-07-19T11:30:48;32.90;26.81
63976;DHT22;50167;47.958;21.780;2022-07-19T11:33:16;33.02;26.90
63976;DHT22;50167;47.958;21.780;2022-07-19T11:35:58;33.09;26.86
63976;DHT22;50167;47.958;21.780;2022-07-19T11:44:06;33.17;25.15
63976;DHT22;50167;47.958;21.780;2022-07-19T11:46:35;33.05;24.72
63976;DHT22;50167;47.958;21.780;2022-07-19T11:49:04;32.90;24.76
63976;DHT22;50167;47.958;21.780;2022-07-19T11:51:31;32.85;25.35
63976;DHT22;50167;47.958;21.780;2022-07-19T11:53:58;32.87;24.42
63976;DHT22;50167;47.958;21.780;2022-07-19T11:56:27;32.96;24.98
63976;DHT22;50167;47.958;21.780;2022-07-19T11:58:56;33.09;25.64
63976;DHT22;50167;47.958;21.780;2022-07-19T12:01:25;33.12;25.03
63976;DHT22;50167;47.958;21.780;2022-07-19T12:03:59;33.14;24.96
63976;DHT22;50167;47.958;21.780;2022-07-19T12:06:42;33.16;25.18
63976;DHT22;50167;47.958;21.780;2022-07-19T12:09:13;33.18;25.10
63976;DHT22;50167;47.958;21.780;2022-07-19T12:11:44;33.23;24.79
63976;DHT22;50167;47.958;21.780;2022-07-19T12:14:30;33.23;24.20
63976;DHT22;50167;47.958;21.780;2022-07-19T12:17:12;33.28;24.64
63976;DHT22;50167;47.958;21.780;2022-07-19T12:19:47;33.27;24.54
63976;DHT22;50167;47.958;21.780;2022-07-19T12:25:10;33.36;23.71
63976;DHT22;50167;47.958;21.780;2022-07-19T12:27:36;33.28;23.96
63976;DHT22;50167;47.958;21.780;2022-07-19T12:30:03;33.21;23.54
63976;DHT22;50167;47.958;21.780;2022-07-19T12:32:31;33.21;24.25
63976;DHT22;50167;47.958;21.780;2022-07-19T12:35:03;33.23;24.50
63976;DHT22;50167;47.958;21.780;2022-07-19T12:40:10;33.43;24.62
63976;DHT22;50167;47.958;21.780;2022-07-19T12:42:49;33.58;24.56
63976;DHT22;50167;47.958;21.780;2022-07-19T12:45:22;33.67;24.55
63976;DHT22;50167;47.958;21.780;2022-07-19T12:47:49;33.82;24.50
63976;DHT22;50167;47.958;21.780;2022-07-19T12:50:28;33.99;24.27
63976;DHT22;50167;47.958;21.780;2022-07-19T12:52:56;34.42;23.50
63976;DHT22;50167;47.958;21.780;2022-07-19T12:55:23;35.00;23.73
63976;DHT22;50167;47.958;21.780;2022-07-19T12:57:50;35.63;21.99
63976;DHT22;50167;47.958;21.780;2022-07-19T13:00:18;36.08;20.70
63976;DHT22;50167;47.958;21.780;2022-07-19T13:02:45;36.46;21.14
63976;DHT22;50167;47.958;21.780;2022-07-19T13:05:11;36.85;21.12
63976;DHT22;50167;47.958;21.780;2022-07-19T13:07:38;37.37;20.02
63976;DHT22;50167;47.958;21.780;2022-07-19T13:10:05;37.96;20.33
63976;DHT22;50167;47.958;21.780;2022-07-19T13:12:31;38.49;19.36
63976;DHT22;50167;47.958;21.780;2022-07-19T13:14:57;39.05;19.64
63976;DHT22;50167;47.958;21.780;2022-07-19T13:17:23;39.72;19.29
63976;DHT22;50167;47.958;21.780;2022-07-19T13:19:49;40.42;18.13
63976;DHT22;50167;47.958;21.780;2022-07-19T13:22:15;40.99;18.31
63976;DHT22;50167;47.958;21.780;2022-07-19T13:24:42;41.07;17.46
63976;DHT22;50167;47.958;21.780;2022-07-19T13:27:08;40.78;18.07
63976;DHT22;50167;47.958;21.780;2022-07-19T13:29:35;40.24;17.68
63976;DHT22;50167;47.958;21.780;2022-07-19T13:32:02;39.70;17.20
63976;DHT22;50167;47.958;21.780;2022-07-19T13:34:30;39.24;18.89
63976;DHT22;50167;47.958;21.780;2022-07-19T13:36:56;39.17;18.92
63976;DHT22;50167;47.958;21.780;2022-07-19T13:39:22;39.65;18.95
63976;DHT22;50167;47.958;21.780;2022-07-19T13:41:48;40.23;18.51
63976;DHT22;50167;47.958;21.780;2022-07-19T13:44:15;40.89;17.82
63976;DHT22;50167;47.958;21.780;2022-07-19T13:46:41;41.57;16.70
63976;DHT22;50167;47.958;21.780;2022-07-19T13:49:07;41.96;16.92
63976;DHT22;50167;47.958;21.780;2022-07-19T13:51:33;42.12;16.94
63976;DHT22;50167;47.958;21.780;2022-07-19T13:54:01;42.30;17.88
63976;DHT22;50167;47.958;21.780;2022-07-19T13:56:27;42.49;16.46
63976;DHT22;50167;47.958;21.780;2022-07-19T13:58:53;42.50;16.54
63976;DHT22;50167;47.958;21.780;2022-07-19T14:01:19;42.71;16.68
63976;DHT22;50167;47.958;21.780;2022-07-19T14:03:45;43.02;16.44
63976;DHT22;50167;47.958;21.780;2022-07-19T14:06:13;43.41;15.87
63976;DHT22;50167;47.958;21.780;2022-07-19T14:08:39;43.83;15.61
63976;DHT22;50167;47.958;21.780;2022-07-19T14:11:05;44.21;15.79
63976;DHT22;50167;47.958;21.780;2022-07-19T14:13:31;44.59;15.67
63976;DHT22;50167;47.958;21.780;2022-07-19T14:15:58;44.89;15.53
63976;DHT22;50167;47.958;21.780;2022-07-19T14:18:24;45.12;14.64
63976;DHT22;50167;47.958;21.780;2022-07-19T14:20:50;45.29;15.31
63976;DHT22;50167;47.958;21.780;2022-07-19T14:23:18;45.46;14.69
63976;DHT22;50167;47.958;21.780;2022-07-19T14:25:44;45.70;14.64
63976;DHT22;50167;47.958;21.780;2022-07-19T14:28:10;45.84;13.25
63976;DHT22;50167;47.958;21.780;2022-07-19T14:30:36;45.87;14.64
63976;DHT22;50167;47.958;21.780;2022-07-19T14:33:02;45.68;14.34
63976;DHT22;50167;47.958;21.780;2022-07-19T14:35:28;45.57;13.81
63976;DHT22;50167;47.958;21.780;2022-07-19T14:37:56;45.76;13.59
63976;DHT22;50167;47.958;21.780;2022-07-19T14:40:22;45.98;13.81
63976;DHT22;50167;47.958;21.780;2022-07-19T14:42:48;46.19;13.38
63976;DHT22;50167;47.958;21.780;2022-07-19T14:45:14;46.48;14.39
63976;DHT22;50167;47.958;21.780;2022-07-19T14:47:42;46.62;13.30
63976;DHT22;50167;47.958;21.780;2022-07-19T14:50:09;46.76;12.44
63976;DHT22;50167;47.958;21.780;2022-07-19T14:52:42;46.90;14.10
63976;DHT22;50167;47.958;21.780;2022-07-19T14:55:09;46.69;13.66
63976;DHT22;50167;47.958;21.780;2022-07-19T14:57:35;46.29;13.53
63976;DHT22;50167;47.958;21.780;2022-07-19T15:00:04;45.95;13.17
63976;DHT22;50167;47.958;21.780;2022-07-19T15:02:32;45.92;13.93
63976;DHT22;50167;47.958;21.780;2022-07-19T15:04:58;45.78;13.19
63976;DHT22;50167;47.958;21.780;2022-07-19T15:07:25;45.95;13.14
63976;DHT22;50167;47.958;21.780;2022-07-19T15:09:51;46.14;13.02
63976;DHT22;50167;47.958;21.780;2022-07-19T15:12:18;46.29;13.88
63976;DHT22;50167;47.958;21.780;2022-07-19T15:14:44;46.14;13.19
63976;DHT22;50167;47.958;21.780;2022-07-19T15:17:10;46.04;13.29
63976;DHT22;50167;47.958;21.780;2022-07-19T15:19:42;46.11;13.03
63976;DHT22;50167;47.958;21.780;2022-07-19T15:22:08;46.17;13.41
63976;DHT22;50167;47.958;21.780;2022-07-19T15:24:34;46.05;13.82
63976;DHT22;50167;47.958;21.780;2022-07-19T15:27:00;45.68;13.95
63976;DHT22;50167;47.958;21.780;2022-07-19T15:29:26;44.91;13.80
63976;DHT22;50167;47.958;21.780;2022-07-19T15:31:53;44.14;14.09
63976;DHT22;50167;47.958;21.780;2022-07-19T15:34:19;43.43;14.32
63976;DHT22;50167;47.958;21.780;2022-07-19T15:36:45;42.78;14.37
63976;DHT22;50167;47.958;21.780;2022-07-19T15:39:11;42.19;14.05